createdAt,value
2017-12-03T00:00:00.689Z,1019.59
2017-12-03T00:01:00.709Z,1019.60
2017-12-03T00:02:00.710Z,1019.61
2017-12-03T00:03:00.722Z,1019.59
2017-12-03T00:04:00.728Z,1019.58
2017-12-03T00:05:00.733Z,1019.60
2017-12-03T00:06:00.753Z,1019.62
2017-12-03T00:07:00.773Z,1019.58
2017-12-03T00:08:00.778Z,1019.66
2017-12-03T00:09:00.792Z,1019.63
2017-12-03T00:10:00.794Z,1019.66
2017-12-03T00:11:01.105Z,1019.64
2017-12-03T00:12:00.819Z,1019.66
2017-12-03T00:13:00.823Z,1019.65
2017-12-03T00:14:00.824Z,1019.66
2017-12-03T00:15:00.865Z,1019.64
2017-12-03T00:16:00.849Z,1019.66
2017-12-03T00:17:00.862Z,1019.63
2017-12-03T00:18:00.871Z,1019.63
2017-12-03T00:19:00.882Z,1019.65
2017-12-03T00:20:00.883Z,1019.65
2017-12-03T00:21:00.893Z,1019.64
2017-12-03T00:22:00.903Z,1019.61
2017-12-03T00:23:00.916Z,1019.62
2017-12-03T00:24:00.915Z,1019.61
2017-12-03T00:25:00.941Z,1019.63
2017-12-03T00:26:00.955Z,1019.60
2017-12-03T00:27:00.952Z,1019.60
2017-12-03T00:28:00.972Z,1019.62
2017-12-03T00:29:00.977Z,1019.61
2017-12-03T00:30:00.981Z,1019.56
2017-12-03T00:31:00.993Z,1019.61
2017-12-03T00:32:01.005Z,1019.60
2017-12-03T00:33:01.012Z,1019.55
2017-12-03T00:34:01.026Z,1019.57
2017-12-03T00:35:01.024Z,1019.59
2017-12-03T00:36:01.040Z,1019.56
2017-12-03T00:37:01.053Z,1019.56
2017-12-03T00:38:01.056Z,1019.53
2017-12-03T00:39:01.067Z,1019.47
2017-12-03T00:40:01.081Z,1019.49
2017-12-03T00:41:01.080Z,1019.48
2017-12-03T00:42:01.099Z,1019.48
2017-12-03T00:43:01.119Z,1019.48
2017-12-03T00:44:01.117Z,1019.48
2017-12-03T00:45:01.130Z,1019.46
2017-12-03T00:46:01.407Z,1019.42
2017-12-03T00:47:01.151Z,1019.43
2017-12-03T00:48:01.164Z,1019.39
2017-12-03T00:49:01.169Z,1019.42
2017-12-03T00:50:01.170Z,1019.42
2017-12-03T00:51:01.194Z,1019.40
2017-12-03T00:52:01.188Z,1019.43
2017-12-03T00:53:01.201Z,1019.40
2017-12-03T00:54:01.211Z,1019.38
2017-12-03T00:55:01.227Z,1019.38
2017-12-03T00:56:01.247Z,1019.38
2017-12-03T00:57:01.252Z,1019.37
2017-12-03T00:58:01.254Z,1019.38
2017-12-03T00:59:01.268Z,1019.37
2017-12-03T01:00:01.283Z,1019.32
2017-12-03T01:01:01.537Z,1019.34
2017-12-03T01:02:01.293Z,1019.29
2017-12-03T01:03:01.299Z,1019.27
2017-12-03T01:04:01.318Z,1019.29
2017-12-03T01:05:01.317Z,1019.26
2017-12-03T01:06:01.326Z,1019.28
2017-12-03T01:07:01.338Z,1019.28
2017-12-03T01:08:01.350Z,1019.31
2017-12-03T01:09:01.362Z,1019.31
2017-12-03T01:10:01.372Z,1019.33
2017-12-03T01:11:01.376Z,1019.32
2017-12-03T01:12:01.401Z,1019.29
2017-12-03T01:13:01.388Z,1019.28
2017-12-03T01:14:01.409Z,1019.29
2017-12-03T01:15:01.424Z,1019.29
2017-12-03T01:16:01.426Z,1019.24
2017-12-03T01:17:01.440Z,1019.24
2017-12-03T01:18:01.449Z,1019.24
2017-12-03T01:19:01.459Z,1019.24
2017-12-03T01:20:01.466Z,1019.17
2017-12-03T01:21:01.477Z,1019.18
2017-12-03T01:22:01.487Z,1019.18
2017-12-03T01:23:01.493Z,1019.17
2017-12-03T01:24:01.498Z,1019.17
2017-12-03T01:25:01.512Z,1019.11
2017-12-03T01:26:01.521Z,1019.13
2017-12-03T01:27:01.532Z,1019.05
2017-12-03T01:28:01.545Z,1019.07
2017-12-03T01:29:01.548Z,1019.05
2017-12-03T01:30:01.557Z,1019.05
2017-12-03T01:31:01.570Z,1019.10
2017-12-03T01:32:01.576Z,1019.06
2017-12-03T01:33:01.589Z,1019.06
2017-12-03T01:34:01.591Z,1019.09
2017-12-03T01:35:01.605Z,1019.05
2017-12-03T01:36:01.627Z,1019.07
2017-12-03T01:37:01.626Z,1019.08
2017-12-03T01:38:01.636Z,1019.08
2017-12-03T01:39:01.654Z,1019.11
2017-12-03T01:40:01.659Z,1019.12
2017-12-03T01:41:01.665Z,1019.09
2017-12-03T01:42:01.674Z,1019.10
2017-12-03T01:43:01.685Z,1019.11
2017-12-03T01:44:01.698Z,1019.11
2017-12-03T01:45:01.709Z,1019.07
2017-12-03T01:46:01.716Z,1019.07
2017-12-03T01:47:01.727Z,1019.06
2017-12-03T01:48:01.732Z,1019.03
2017-12-03T01:49:01.749Z,1018.96
2017-12-03T01:50:01.746Z,1018.96
2017-12-03T01:51:01.750Z,1018.93
2017-12-03T01:52:01.764Z,1018.93
2017-12-03T01:53:01.768Z,1018.91
2017-12-03T01:54:01.783Z,1018.90
2017-12-03T01:55:01.792Z,1018.95
2017-12-03T01:56:02.095Z,1018.91
2017-12-03T01:57:01.813Z,1018.91
2017-12-03T01:58:01.822Z,1018.90
2017-12-03T01:59:01.827Z,1018.90
2017-12-03T02:00:01.835Z,1018.86
2017-12-03T02:01:01.839Z,1018.88
2017-12-03T02:02:01.854Z,1018.85
2017-12-03T02:03:01.862Z,1018.86
2017-12-03T02:04:01.868Z,1018.85
2017-12-03T02:05:01.880Z,1018.84
2017-12-03T02:06:01.898Z,1018.81
2017-12-03T02:07:01.901Z,1018.81
2017-12-03T02:08:01.924Z,1018.81
2017-12-03T02:09:01.923Z,1018.79
2017-12-03T02:10:01.938Z,1018.83
2017-12-03T02:11:01.951Z,1018.76
2017-12-03T02:12:01.957Z,1018.78
2017-12-03T02:13:01.973Z,1018.78
2017-12-03T02:14:01.971Z,1018.79
2017-12-03T02:15:01.977Z,1018.80
2017-12-03T02:16:01.988Z,1018.80
2017-12-03T02:17:01.994Z,1018.76
2017-12-03T02:18:02.004Z,1018.78
2017-12-03T02:19:02.022Z,1018.76
2017-12-03T02:20:02.027Z,1018.80
2017-12-03T02:21:02.039Z,1018.80
2017-12-03T02:22:02.043Z,1018.84
2017-12-03T02:23:02.047Z,1018.82
2017-12-03T02:24:02.059Z,1018.81
2017-12-03T02:25:02.076Z,1018.79
2017-12-03T02:26:02.074Z,1018.75
2017-12-03T02:27:02.087Z,1018.75
2017-12-03T02:28:02.096Z,1018.75
2017-12-03T02:29:02.115Z,1018.71
2017-12-03T02:30:02.120Z,1018.72
2017-12-03T02:31:02.119Z,1018.69
2017-12-03T02:32:02.138Z,1018.70
2017-12-03T02:33:02.140Z,1018.73
2017-12-03T02:34:02.152Z,1018.70
2017-12-03T02:35:02.165Z,1018.70
2017-12-03T02:36:02.164Z,1018.68
2017-12-03T02:37:02.175Z,1018.65
2017-12-03T02:38:02.191Z,1018.64
2017-12-03T02:39:02.200Z,1018.63
2017-12-03T02:40:02.205Z,1018.65
2017-12-03T02:41:02.214Z,1018.61
2017-12-03T02:42:02.225Z,1018.62
2017-12-03T02:43:02.242Z,1018.62
2017-12-03T02:44:02.257Z,1018.61
2017-12-03T02:45:02.256Z,1018.64
2017-12-03T02:46:02.265Z,1018.61
2017-12-03T02:47:02.284Z,1018.63
2017-12-03T02:48:02.286Z,1018.61
2017-12-03T02:49:02.300Z,1018.60
2017-12-03T02:50:02.303Z,1018.53
2017-12-03T02:51:02.560Z,1018.54
2017-12-03T02:52:02.329Z,1018.51
2017-12-03T02:53:02.332Z,1018.51
2017-12-03T02:54:02.337Z,1018.56
2017-12-03T02:55:02.354Z,1018.51
2017-12-03T02:56:02.354Z,1018.49
2017-12-03T02:57:02.374Z,1018.54
2017-12-03T02:58:02.382Z,1018.47
2017-12-03T02:59:02.380Z,1018.44
2017-12-03T03:00:02.397Z,1018.51
2017-12-03T03:01:02.398Z,1018.48
2017-12-03T03:02:02.406Z,1018.42
2017-12-03T03:03:02.421Z,1018.46
2017-12-03T03:04:02.435Z,1018.38
2017-12-03T03:05:02.452Z,1018.40
2017-12-03T03:06:02.461Z,1018.40
2017-12-03T03:07:02.472Z,1018.41
2017-12-03T03:08:02.476Z,1018.42
2017-12-03T03:09:02.482Z,1018.42
2017-12-03T03:10:02.497Z,1018.40
2017-12-03T03:11:02.503Z,1018.43
2017-12-03T03:12:02.514Z,1018.41
2017-12-03T03:13:02.521Z,1018.40
2017-12-03T03:14:02.540Z,1018.39
2017-12-03T03:15:02.545Z,1018.40
2017-12-03T03:16:02.547Z,1018.38
2017-12-03T03:17:02.559Z,1018.40
2017-12-03T03:18:02.562Z,1018.35
2017-12-03T03:19:02.575Z,1018.33
2017-12-03T03:20:02.588Z,1018.34
2017-12-03T03:21:02.604Z,1018.34
2017-12-03T03:22:02.621Z,1018.33
2017-12-03T03:23:02.618Z,1018.31
2017-12-03T03:24:02.637Z,1018.31
2017-12-03T03:25:02.636Z,1018.27
2017-12-03T03:26:02.945Z,1018.29
2017-12-03T03:27:02.663Z,1018.28
2017-12-03T03:28:02.668Z,1018.23
2017-12-03T03:29:02.676Z,1018.29
2017-12-03T03:30:02.691Z,1018.26
2017-12-03T03:31:02.696Z,1018.24
2017-12-03T03:32:02.709Z,1018.24
2017-12-03T03:33:02.727Z,1018.20
2017-12-03T03:34:02.716Z,1018.24
2017-12-03T03:35:02.736Z,1018.21
2017-12-03T03:36:02.753Z,1018.18
2017-12-03T03:37:02.759Z,1018.18
2017-12-03T03:38:02.775Z,1018.16
2017-12-03T03:39:02.786Z,1018.16
2017-12-03T03:40:02.786Z,1018.15
2017-12-03T03:41:03.090Z,1018.12
2017-12-03T03:42:02.814Z,1018.16
2017-12-03T03:43:02.819Z,1018.13
2017-12-03T03:44:02.816Z,1018.11
2017-12-03T03:45:02.830Z,1018.10
2017-12-03T03:46:02.852Z,1018.11
2017-12-03T03:47:02.844Z,1018.09
2017-12-03T03:48:02.863Z,1018.12
2017-12-03T03:49:02.867Z,1018.09
2017-12-03T03:50:02.882Z,1018.07
2017-12-03T03:51:02.891Z,1018.04
2017-12-03T03:52:02.907Z,1018.07
2017-12-03T03:53:02.920Z,1018.06
2017-12-03T03:54:02.929Z,1018.03
2017-12-03T03:55:02.943Z,1018.04
2017-12-03T03:56:02.946Z,1018.02
2017-12-03T03:57:02.944Z,1018.03
2017-12-03T03:58:02.954Z,1018.03
2017-12-03T03:59:02.973Z,1018.05
2017-12-03T04:00:02.980Z,1018.07
2017-12-03T04:01:02.990Z,1018.01
2017-12-03T04:02:02.994Z,1018.05
2017-12-03T04:03:02.998Z,1018.01
2017-12-03T04:04:03.017Z,1018.02
2017-12-03T04:05:03.022Z,1017.99
2017-12-03T04:06:03.325Z,1017.98
2017-12-03T04:07:03.045Z,1017.95
2017-12-03T04:08:03.054Z,1018.00
2017-12-03T04:09:03.075Z,1017.98
2017-12-03T04:10:03.083Z,1017.95
2017-12-03T04:11:03.338Z,1017.94
2017-12-03T04:12:03.102Z,1017.97
2017-12-03T04:13:03.106Z,1017.98
2017-12-03T04:14:03.115Z,1017.94
2017-12-03T04:15:03.130Z,1017.97
2017-12-03T04:16:03.133Z,1017.98
2017-12-03T04:17:03.146Z,1017.99
2017-12-03T04:18:03.155Z,1018.02
2017-12-03T04:19:03.166Z,1017.96
2017-12-03T04:20:03.172Z,1017.96
2017-12-03T04:21:03.490Z,1017.94
2017-12-03T04:22:03.186Z,1017.91
2017-12-03T04:23:03.205Z,1017.92
2017-12-03T04:24:03.216Z,1017.91
2017-12-03T04:25:03.229Z,1017.92
2017-12-03T04:26:03.231Z,1017.92
2017-12-03T04:27:03.239Z,1017.88
2017-12-03T04:28:03.250Z,1017.88
2017-12-03T04:29:03.260Z,1017.85
2017-12-03T04:30:03.269Z,1017.91
2017-12-03T04:31:03.281Z,1017.93
2017-12-03T04:32:03.280Z,1017.94
2017-12-03T04:33:03.295Z,1017.93
2017-12-03T04:34:03.303Z,1017.96
2017-12-03T04:35:03.309Z,1017.95
2017-12-03T04:36:03.320Z,1017.95
2017-12-03T04:37:03.331Z,1017.93
2017-12-03T04:38:03.340Z,1017.91
2017-12-03T04:39:03.371Z,1017.90
2017-12-03T04:40:03.365Z,1017.86
2017-12-03T04:41:03.377Z,1017.88
2017-12-03T04:42:03.387Z,1017.90
2017-12-03T04:43:03.398Z,1017.89
2017-12-03T04:44:03.412Z,1017.90
2017-12-03T04:45:03.410Z,1017.89
2017-12-03T04:46:03.471Z,1017.89
2017-12-03T04:47:03.431Z,1017.94
2017-12-03T04:48:03.444Z,1017.86
2017-12-03T04:49:03.454Z,1017.88
2017-12-03T04:50:03.459Z,1017.89
2017-12-03T04:51:03.463Z,1017.83
2017-12-03T04:52:03.479Z,1017.83
2017-12-03T04:53:03.496Z,1017.83
2017-12-03T04:54:03.501Z,1017.84
2017-12-03T04:55:03.511Z,1017.77
2017-12-03T04:56:03.532Z,1017.79
2017-12-03T04:57:03.533Z,1017.80
2017-12-03T04:58:03.543Z,1017.72
2017-12-03T04:59:03.557Z,1017.72
2017-12-03T05:00:03.561Z,1017.70
2017-12-03T05:01:03.576Z,1017.68
2017-12-03T05:02:03.580Z,1017.64
2017-12-03T05:03:03.588Z,1017.62
2017-12-03T05:04:03.595Z,1017.61
2017-12-03T05:05:03.605Z,1017.60
2017-12-03T05:06:03.615Z,1017.57
2017-12-03T05:07:03.627Z,1017.63
2017-12-03T05:08:03.633Z,1017.62
2017-12-03T05:09:03.639Z,1017.58
2017-12-03T05:10:03.660Z,1017.56
2017-12-03T05:11:03.668Z,1017.56
2017-12-03T05:12:03.677Z,1017.60
2017-12-03T05:13:03.683Z,1017.50
2017-12-03T05:14:03.690Z,1017.49
2017-12-03T05:15:03.710Z,1017.51
2017-12-03T05:16:03.710Z,1017.53
2017-12-03T05:17:03.729Z,1017.49
2017-12-03T05:18:03.737Z,1017.48
2017-12-03T05:19:03.743Z,1017.47
2017-12-03T05:20:03.756Z,1017.49
2017-12-03T05:21:04.054Z,1017.43
2017-12-03T05:22:03.774Z,1017.45
2017-12-03T05:23:03.794Z,1017.44
2017-12-03T05:24:03.793Z,1017.44
2017-12-03T05:25:03.805Z,1017.46
2017-12-03T05:26:03.817Z,1017.44
2017-12-03T05:27:03.820Z,1017.41
2017-12-03T05:28:03.839Z,1017.48
2017-12-03T05:29:03.844Z,1017.42
2017-12-03T05:30:03.847Z,1017.47
2017-12-03T05:31:03.893Z,1017.45
2017-12-03T05:32:03.865Z,1017.49
2017-12-03T05:33:03.877Z,1017.47
2017-12-03T05:34:03.893Z,1017.46
2017-12-03T05:35:03.899Z,1017.46
2017-12-03T05:36:04.166Z,1017.41
2017-12-03T05:37:03.921Z,1017.43
2017-12-03T05:38:03.937Z,1017.44
2017-12-03T05:39:03.944Z,1017.41
2017-12-03T05:40:03.948Z,1017.43
2017-12-03T05:41:04.211Z,1017.39
2017-12-03T05:42:03.969Z,1017.35
2017-12-03T05:43:03.980Z,1017.34
2017-12-03T05:44:03.987Z,1017.34
2017-12-03T05:45:03.993Z,1017.32
2017-12-03T05:46:04.002Z,1017.30
2017-12-03T05:47:04.027Z,1017.34
2017-12-03T05:48:04.040Z,1017.31
2017-12-03T05:49:04.054Z,1017.29
2017-12-03T05:50:04.056Z,1017.32
2017-12-03T05:51:04.058Z,1017.33
2017-12-03T05:52:04.071Z,1017.33
2017-12-03T05:53:04.076Z,1017.34
2017-12-03T05:54:04.085Z,1017.33
2017-12-03T05:55:04.105Z,1017.38
2017-12-03T05:56:04.109Z,1017.32
2017-12-03T05:57:04.115Z,1017.29
2017-12-03T05:58:04.125Z,1017.29
2017-12-03T05:59:04.142Z,1017.29
2017-12-03T06:00:04.161Z,1017.26
2017-12-03T06:01:04.165Z,1017.26
2017-12-03T06:02:04.169Z,1017.32
2017-12-03T06:03:04.188Z,1017.30
2017-12-03T06:04:04.192Z,1017.27
2017-12-03T06:05:04.207Z,1017.27
2017-12-03T06:06:04.214Z,1017.27
2017-12-03T06:07:04.219Z,1017.27
2017-12-03T06:08:04.226Z,1017.22
2017-12-03T06:09:04.230Z,1017.19
2017-12-03T06:10:04.248Z,1017.17
2017-12-03T06:11:04.272Z,1017.19
2017-12-03T06:12:04.271Z,1017.19
2017-12-03T06:13:04.290Z,1017.16
2017-12-03T06:14:04.298Z,1017.16
2017-12-03T06:15:04.297Z,1017.17
2017-12-03T06:16:04.311Z,1017.19
2017-12-03T06:17:04.314Z,1017.20
2017-12-03T06:18:04.332Z,1017.14
2017-12-03T06:19:04.336Z,1017.21
2017-12-03T06:20:04.350Z,1017.24
2017-12-03T06:21:04.655Z,1017.21
2017-12-03T06:22:04.382Z,1017.24
2017-12-03T06:23:04.380Z,1017.24
2017-12-03T06:24:04.394Z,1017.22
2017-12-03T06:25:04.398Z,1017.20
2017-12-03T06:26:04.413Z,1017.25
2017-12-03T06:27:04.420Z,1017.19
2017-12-03T06:28:04.425Z,1017.20
2017-12-03T06:29:04.437Z,1017.22
2017-12-03T06:30:04.456Z,1017.20
2017-12-03T06:31:04.453Z,1017.20
2017-12-03T06:32:04.477Z,1017.22
2017-12-03T06:33:04.475Z,1017.20
2017-12-03T06:34:04.491Z,1017.24
2017-12-03T06:35:04.512Z,1017.22
2017-12-03T06:36:04.516Z,1017.22
2017-12-03T06:37:04.528Z,1017.25
2017-12-03T06:38:04.530Z,1017.26
2017-12-03T06:39:04.540Z,1017.22
2017-12-03T06:40:04.555Z,1017.27
2017-12-03T06:41:04.825Z,1017.22
2017-12-03T06:42:04.567Z,1017.23
2017-12-03T06:43:04.574Z,1017.15
2017-12-03T06:44:04.588Z,1017.19
2017-12-03T06:45:04.604Z,1017.17
2017-12-03T06:46:04.904Z,1017.21
2017-12-03T06:47:04.624Z,1017.22
2017-12-03T06:48:04.638Z,1017.22
2017-12-03T06:49:04.692Z,1017.18
2017-12-03T06:50:04.664Z,1017.17
2017-12-03T06:51:04.658Z,1017.19
2017-12-03T06:52:04.663Z,1017.20
2017-12-03T06:53:04.676Z,1017.21
2017-12-03T06:54:04.697Z,1017.24
2017-12-03T06:55:04.697Z,1017.21
2017-12-03T06:56:04.704Z,1017.22
2017-12-03T06:57:04.707Z,1017.24
2017-12-03T06:58:04.723Z,1017.30
2017-12-03T06:59:04.737Z,1017.26
2017-12-03T07:00:04.751Z,1017.26
2017-12-03T07:01:04.762Z,1017.29
2017-12-03T07:02:04.768Z,1017.29
2017-12-03T07:03:04.790Z,1017.26
2017-12-03T07:04:04.789Z,1017.30
2017-12-03T07:05:04.802Z,1017.31
2017-12-03T07:06:04.810Z,1017.29
2017-12-03T07:07:04.809Z,1017.27
2017-12-03T07:08:04.829Z,1017.24
2017-12-03T07:09:04.833Z,1017.24
2017-12-03T07:10:04.842Z,1017.27
2017-12-03T07:11:04.855Z,1017.26
2017-12-03T07:12:04.860Z,1017.26
2017-12-03T07:13:04.867Z,1017.28
2017-12-03T07:14:04.887Z,1017.29
2017-12-03T07:15:04.893Z,1017.29
2017-12-03T07:16:04.905Z,1017.28
2017-12-03T07:17:04.911Z,1017.30
2017-12-03T07:18:04.926Z,1017.28
2017-12-03T07:19:04.940Z,1017.27
2017-12-03T07:20:04.938Z,1017.26
2017-12-03T07:21:05.256Z,1017.25
2017-12-03T07:22:04.960Z,1017.25
2017-12-03T07:23:04.969Z,1017.20
2017-12-03T07:24:04.978Z,1017.22
2017-12-03T07:25:04.981Z,1017.22
2017-12-03T07:26:04.997Z,1017.24
2017-12-03T07:27:05.023Z,1017.24
2017-12-03T07:28:05.021Z,1017.24
2017-12-03T07:29:05.033Z,1017.28
2017-12-03T07:30:05.049Z,1017.31
2017-12-03T07:31:05.047Z,1017.30
2017-12-03T07:32:05.061Z,1017.30
2017-12-03T07:33:05.065Z,1017.32
2017-12-03T07:34:05.081Z,1017.31
2017-12-03T07:35:05.087Z,1017.34
2017-12-03T07:36:05.098Z,1017.37
2017-12-03T07:37:05.109Z,1017.33
2017-12-03T07:38:05.123Z,1017.39
2017-12-03T07:39:05.124Z,1017.34
2017-12-03T07:40:05.138Z,1017.29
2017-12-03T07:41:05.387Z,1017.30
2017-12-03T07:42:05.145Z,1017.31
2017-12-03T07:43:05.158Z,1017.28
2017-12-03T07:44:05.171Z,1017.34
2017-12-03T07:45:05.198Z,1017.29
2017-12-03T07:46:05.203Z,1017.29
2017-12-03T07:47:05.202Z,1017.29
2017-12-03T07:48:05.216Z,1017.25
2017-12-03T07:49:05.227Z,1017.24
2017-12-03T07:50:05.236Z,1017.23
2017-12-03T07:51:05.249Z,1017.27
2017-12-03T07:52:05.253Z,1017.27
2017-12-03T07:53:05.265Z,1017.29
2017-12-03T07:54:05.268Z,1017.30
2017-12-03T07:55:05.274Z,1017.36
2017-12-03T07:56:05.292Z,1017.29
2017-12-03T07:57:05.297Z,1017.28
2017-12-03T07:58:05.307Z,1017.27
2017-12-03T07:59:05.319Z,1017.27
2017-12-03T08:00:05.317Z,1017.28
2017-12-03T08:01:05.339Z,1017.29
2017-12-03T08:02:05.340Z,1017.28
2017-12-03T08:03:05.351Z,1017.28
2017-12-03T08:04:05.356Z,1017.32
2017-12-03T08:05:05.401Z,1017.31
2017-12-03T08:06:05.378Z,1017.32
2017-12-03T08:07:05.383Z,1017.34
2017-12-03T08:08:05.389Z,1017.34
2017-12-03T08:09:05.407Z,1017.36
2017-12-03T08:10:05.416Z,1017.31
2017-12-03T08:11:05.419Z,1017.34
2017-12-03T08:12:05.435Z,1017.32
2017-12-03T08:13:05.433Z,1017.32
2017-12-03T08:14:05.443Z,1017.37
2017-12-03T08:15:05.473Z,1017.35
2017-12-03T08:16:05.473Z,1017.35
2017-12-03T08:17:05.485Z,1017.39
2017-12-03T08:18:05.500Z,1017.44
2017-12-03T08:19:05.499Z,1017.40
2017-12-03T08:20:05.515Z,1017.38
2017-12-03T08:21:05.524Z,1017.40
2017-12-03T08:22:05.526Z,1017.36
2017-12-03T08:23:05.539Z,1017.37
2017-12-03T08:24:05.558Z,1017.39
2017-12-03T08:25:05.563Z,1017.32
2017-12-03T08:26:05.572Z,1017.34
2017-12-03T08:27:05.569Z,1017.30
2017-12-03T08:28:05.583Z,1017.35
2017-12-03T08:29:05.588Z,1017.29
2017-12-03T08:30:05.602Z,1017.38
2017-12-03T08:31:05.609Z,1017.37
2017-12-03T08:32:05.615Z,1017.35
2017-12-03T08:33:05.634Z,1017.31
2017-12-03T08:34:05.637Z,1017.29
2017-12-03T08:35:05.647Z,1017.29
2017-12-03T08:36:05.655Z,1017.28
2017-12-03T08:37:05.671Z,1017.30
2017-12-03T08:38:05.673Z,1017.29
2017-12-03T08:39:05.680Z,1017.32
2017-12-03T08:40:05.686Z,1017.29
2017-12-03T08:41:05.710Z,1017.31
2017-12-03T08:42:05.707Z,1017.31
2017-12-03T08:43:05.713Z,1017.30
2017-12-03T08:44:05.726Z,1017.31
2017-12-03T08:45:05.731Z,1017.32
2017-12-03T08:46:05.745Z,1017.31
2017-12-03T08:47:05.771Z,1017.31
2017-12-03T08:48:05.777Z,1017.31
2017-12-03T08:49:05.772Z,1017.32
2017-12-03T08:50:05.803Z,1017.32
2017-12-03T08:51:05.796Z,1017.33
2017-12-03T08:52:05.810Z,1017.32
2017-12-03T08:53:05.814Z,1017.31
2017-12-03T08:54:05.828Z,1017.28
2017-12-03T08:55:05.843Z,1017.25
2017-12-03T08:56:05.860Z,1017.31
2017-12-03T08:57:05.859Z,1017.32
2017-12-03T08:58:05.867Z,1017.26
2017-12-03T08:59:05.866Z,1017.24
2017-12-03T09:00:05.899Z,1017.26
2017-12-03T09:01:05.886Z,1017.21
2017-12-03T09:02:05.897Z,1017.19
2017-12-03T09:03:05.921Z,1017.19
2017-12-03T09:04:05.911Z,1017.18
2017-12-03T09:05:05.931Z,1017.20
2017-12-03T09:06:05.939Z,1017.14
2017-12-03T09:07:05.946Z,1017.14
2017-12-03T09:08:05.948Z,1017.14
2017-12-03T09:09:05.961Z,1017.11
2017-12-03T09:10:05.969Z,1017.07
2017-12-03T09:11:05.981Z,1017.03
2017-12-03T09:12:05.996Z,1017.05
2017-12-03T09:13:05.992Z,1017.02
2017-12-03T09:14:06.005Z,1016.99
2017-12-03T09:15:06.033Z,1016.95
2017-12-03T09:16:06.036Z,1016.97
2017-12-03T09:17:06.050Z,1016.92
2017-12-03T09:18:06.059Z,1016.91
2017-12-03T09:19:06.057Z,1016.84
2017-12-03T09:20:06.070Z,1016.84
2017-12-03T09:21:06.081Z,1016.83
2017-12-03T09:22:06.091Z,1016.82
2017-12-03T09:23:06.104Z,1016.81
2017-12-03T09:24:06.102Z,1016.82
2017-12-03T09:25:06.114Z,1016.89
2017-12-03T09:26:06.130Z,1016.87
2017-12-03T09:27:06.135Z,1016.87
2017-12-03T09:28:06.142Z,1016.92
2017-12-03T09:29:06.163Z,1016.88
2017-12-03T09:30:06.161Z,1016.88
2017-12-03T09:31:06.175Z,1016.87
2017-12-03T09:32:06.179Z,1016.80
2017-12-03T09:33:06.193Z,1016.81
2017-12-03T09:34:06.197Z,1016.78
2017-12-03T09:35:06.213Z,1016.80
2017-12-03T09:36:06.232Z,1016.84
2017-12-03T09:37:06.236Z,1016.78
2017-12-03T09:38:06.244Z,1016.78
2017-12-03T09:39:06.259Z,1016.80
2017-12-03T09:40:06.262Z,1016.76
2017-12-03T09:41:06.270Z,1016.77
2017-12-03T09:42:06.285Z,1016.69
2017-12-03T09:43:06.289Z,1016.71
2017-12-03T09:44:06.303Z,1016.70
2017-12-03T09:45:06.308Z,1016.67
2017-12-03T09:46:06.318Z,1016.65
2017-12-03T09:47:06.322Z,1016.67
2017-12-03T09:48:06.334Z,1016.67
2017-12-03T09:49:06.343Z,1016.65
2017-12-03T09:50:06.384Z,1016.65
2017-12-03T09:51:06.366Z,1016.61
2017-12-03T09:52:06.387Z,1016.60
2017-12-03T09:53:06.390Z,1016.58
2017-12-03T09:54:06.399Z,1016.58
2017-12-03T09:55:06.413Z,1016.57
2017-12-03T09:56:06.466Z,1016.51
2017-12-03T09:57:06.431Z,1016.55
2017-12-03T09:58:06.437Z,1016.49
2017-12-03T09:59:06.439Z,1016.48
2017-12-03T10:00:06.458Z,1016.50
2017-12-03T10:01:06.456Z,1016.46
2017-12-03T10:02:06.471Z,1016.46
2017-12-03T10:03:06.486Z,1016.39
2017-12-03T10:04:06.502Z,1016.37
2017-12-03T10:05:06.514Z,1016.42
2017-12-03T10:06:06.516Z,1016.35
2017-12-03T10:07:06.527Z,1016.34
2017-12-03T10:08:06.540Z,1016.34
2017-12-03T10:09:06.539Z,1016.38
2017-12-03T10:10:06.547Z,1016.38
2017-12-03T10:11:06.567Z,1016.35
2017-12-03T10:12:06.566Z,1016.33
2017-12-03T10:13:06.579Z,1016.30
2017-12-03T10:14:06.588Z,1016.29
2017-12-03T10:15:06.594Z,1016.36
2017-12-03T10:16:06.629Z,1016.27
2017-12-03T10:17:06.623Z,1016.23
2017-12-03T10:18:06.633Z,1016.21
2017-12-03T10:19:06.643Z,1016.16
2017-12-03T10:20:06.649Z,1016.14
2017-12-03T10:21:06.667Z,1016.07
2017-12-03T10:22:06.678Z,1016.10
2017-12-03T10:23:06.684Z,1016.10
2017-12-03T10:24:06.709Z,1016.05
2017-12-03T10:25:06.718Z,1016.13
2017-12-03T10:26:06.716Z,1016.05
2017-12-03T10:27:06.733Z,1016.04
2017-12-03T10:28:06.733Z,1016.05
2017-12-03T10:29:06.746Z,1016.07
2017-12-03T10:30:06.755Z,1015.98
2017-12-03T10:31:06.779Z,1016.01
2017-12-03T10:32:06.792Z,1016.01
2017-12-03T10:33:06.789Z,1016.03
2017-12-03T10:34:06.808Z,1015.99
2017-12-03T10:35:06.818Z,1015.97
2017-12-03T10:36:06.819Z,1016.00
2017-12-03T10:37:06.842Z,1015.99
2017-12-03T10:38:06.852Z,1015.97
2017-12-03T10:39:06.862Z,1015.94
2017-12-03T10:40:06.870Z,1015.90
2017-12-03T10:41:07.124Z,1015.84
2017-12-03T10:42:06.896Z,1015.87
2017-12-03T10:43:06.917Z,1015.88
2017-12-03T10:44:06.913Z,1015.82
2017-12-03T10:45:06.931Z,1015.85
2017-12-03T10:46:06.935Z,1015.81
2017-12-03T10:47:06.952Z,1015.87
2017-12-03T10:48:06.973Z,1015.82
2017-12-03T10:49:06.975Z,1015.81
2017-12-03T10:50:06.988Z,1015.81
2017-12-03T10:51:07.004Z,1015.77
2017-12-03T10:52:07.016Z,1015.69
2017-12-03T10:53:07.029Z,1015.73
2017-12-03T10:54:07.036Z,1015.67
2017-12-03T10:55:07.050Z,1015.66
2017-12-03T10:56:07.069Z,1015.69
2017-12-03T10:57:07.072Z,1015.68
2017-12-03T10:58:07.083Z,1015.65
2017-12-03T10:59:07.102Z,1015.66
2017-12-03T11:00:07.105Z,1015.68
2017-12-03T11:01:07.118Z,1015.65
2017-12-03T11:02:07.129Z,1015.61
2017-12-03T11:03:07.145Z,1015.64
2017-12-03T11:04:07.163Z,1015.59
2017-12-03T11:05:07.168Z,1015.62
2017-12-03T11:06:07.171Z,1015.61
2017-12-03T11:07:07.202Z,1015.56
2017-12-03T11:08:07.202Z,1015.58
2017-12-03T11:09:07.214Z,1015.57
2017-12-03T11:10:07.255Z,1015.59
2017-12-03T11:11:07.240Z,1015.55
2017-12-03T11:12:07.261Z,1015.53
2017-12-03T11:13:07.259Z,1015.52
2017-12-03T11:14:07.279Z,1015.48
2017-12-03T11:15:07.292Z,1015.50
2017-12-03T11:16:07.308Z,1015.54
2017-12-03T11:17:07.319Z,1015.40
2017-12-03T11:18:07.328Z,1015.42
2017-12-03T11:19:07.346Z,1015.45
2017-12-03T11:20:07.365Z,1015.37
2017-12-03T11:21:07.371Z,1015.34
2017-12-03T11:22:07.386Z,1015.44
2017-12-03T11:23:07.386Z,1015.40
2017-12-03T11:24:07.416Z,1015.28
2017-12-03T11:25:07.421Z,1015.34
2017-12-03T11:26:07.423Z,1015.32
2017-12-03T11:27:07.449Z,1015.32
2017-12-03T11:28:07.466Z,1015.32
2017-12-03T11:29:07.474Z,1015.26
2017-12-03T11:30:07.489Z,1015.27
2017-12-03T11:31:07.493Z,1015.24
2017-12-03T11:32:07.516Z,1015.21
2017-12-03T11:33:07.511Z,1015.19
2017-12-03T11:34:07.540Z,1015.12
2017-12-03T11:35:07.552Z,1015.12
2017-12-03T11:36:07.559Z,1015.13
2017-12-03T11:37:07.575Z,1015.14
2017-12-03T11:38:07.584Z,1015.13
2017-12-03T11:39:07.589Z,1015.08
2017-12-03T11:40:07.611Z,1015.07
2017-12-03T11:41:07.875Z,1015.06
2017-12-03T11:42:07.634Z,1015.04
2017-12-03T11:43:07.648Z,1015.01
2017-12-03T11:44:07.666Z,1015.00
2017-12-03T11:45:07.672Z,1014.98
2017-12-03T11:46:07.680Z,1015.00
2017-12-03T11:47:07.700Z,1014.95
2017-12-03T11:48:07.711Z,1014.89
2017-12-03T11:49:07.717Z,1014.92
2017-12-03T11:50:07.731Z,1014.89
2017-12-03T11:51:07.751Z,1014.88
2017-12-03T11:52:07.762Z,1014.84
2017-12-03T11:53:07.769Z,1014.89
2017-12-03T11:54:07.797Z,1014.84
2017-12-03T11:55:07.811Z,1014.80
2017-12-03T11:56:07.807Z,1014.80
2017-12-03T11:57:07.824Z,1014.84
2017-12-03T11:58:07.834Z,1014.82
2017-12-03T11:59:07.852Z,1014.79
2017-12-03T12:00:07.864Z,1014.79
2017-12-03T12:01:08.176Z,1014.76
2017-12-03T12:02:07.887Z,1014.76
2017-12-03T12:03:07.893Z,1014.76
2017-12-03T12:04:07.915Z,1014.76
2017-12-03T12:05:07.920Z,1014.74